createdAt,value
2023-02-14T00:00:04.624Z,98737.00
2023-02-14T00:02:31.628Z,98736.75
2023-02-14T00:04:58.416Z,98731.97
2023-02-14T00:07:25.536Z,98731.03
2023-02-14T00:09:52.162Z,98725.47
2023-02-14T00:12:18.788Z,98724.47
2023-02-14T00:14:45.447Z,98726.59
2023-02-14T00:17:12.348Z,98720.19
2023-02-14T00:19:39.006Z,98717.47
2023-02-14T00:22:05.730Z,98718.31
2023-02-14T00:24:32.479Z,98708.84
2023-02-14T00:26:59.124Z,98699.38
2023-02-14T00:29:28.300Z,98707.28
2023-02-14T00:31:55.308Z,98703.09
2023-02-14T00:34:21.952Z,98701.38
2023-02-14T00:36:48.714Z,98699.44
2023-02-14T00:39:15.896Z,98700.72
2023-02-14T00:41:42.671Z,98699.53
2023-02-14T00:44:09.708Z,98694.81
2023-02-14T00:46:36.335Z,98699.69
2023-02-14T00:49:02.967Z,98689.75
2023-02-14T00:51:29.940Z,98686.25
2023-02-14T00:53:56.596Z,98694.97
2023-02-14T00:56:23.417Z,98693.16
2023-02-14T00:58:50.234Z,98696.84
2023-02-14T01:01:16.945Z,98699.78
2023-02-14T01:03:43.792Z,98697.19
2023-02-14T01:06:10.448Z,98695.50
2023-02-14T01:08:37.152Z,98699.34
2023-02-14T01:11:20.527Z,98696.72
2023-02-14T01:13:47.940Z,98706.25
2023-02-14T01:16:16.749Z,98702.44
2023-02-14T01:18:43.394Z,98706.22
2023-02-14T01:21:25.096Z,98702.81
2023-02-14T01:23:53.383Z,98708.34
2023-02-14T01:26:20.366Z,98710.97
2023-02-14T01:28:47.278Z,98707.56
2023-02-14T01:31:24.759Z,98711.59
2023-02-14T01:33:51.693Z,98709.88
2023-02-14T01:36:23.082Z,98715.69
2023-02-14T01:38:57.673Z,98713.97
2023-02-14T01:41:24.703Z,98710.06
2023-02-14T01:44:02.930Z,98709.88
2023-02-14T01:46:31.600Z,98714.91
2023-02-14T01:49:14.500Z,98704.94
2023-02-14T01:51:48.910Z,98704.84
2023-02-14T01:54:15.536Z,98695.28
2023-02-14T01:56:50.085Z,98689.06
2023-02-14T01:59:18.932Z,98685.56
2023-02-14T02:01:45.994Z,98684.00
2023-02-14T02:04:17.702Z,98683.16
2023-02-14T02:06:51.144Z,98687.59
2023-02-14T02:09:33.609Z,98687.25
2023-02-14T02:12:01.241Z,98683.25
2023-02-14T02:14:27.955Z,98685.66
2023-02-14T02:17:28.722Z,98680.44
2023-02-14T02:20:17.325Z,98692.06
2023-02-14T02:23:02.590Z,98679.44
2023-02-14T02:25:50.979Z,98675.19
2023-02-14T02:28:26.909Z,98670.13
2023-02-14T02:30:56.579Z,98673.97
2023-02-14T02:33:45.204Z,98668.44
2023-02-14T02:36:36.617Z,98666.66
2023-02-14T02:39:03.160Z,98670.56
2023-02-14T02:41:48.099Z,98670.41
2023-02-14T02:44:45.826Z,98669.09
2023-02-14T02:47:32.214Z,98670.72
2023-02-14T02:50:19.850Z,98674.63
2023-02-14T02:53:07.638Z,98668.41
2023-02-14T02:55:54.158Z,98663.91
2023-02-14T02:58:20.817Z,98673.44
2023-02-14T03:00:47.441Z,98669.88
2023-02-14T03:03:14.073Z,98663.06
2023-02-14T03:05:40.781Z,98670.91
2023-02-14T03:08:07.404Z,98667.31
2023-02-14T03:10:36.307Z,98667.03
2023-02-14T03:13:24.591Z,98661.44
2023-02-14T03:16:16.206Z,98666.53
2023-02-14T03:18:44.588Z,98664.06
2023-02-14T03:21:28.877Z,98657.25
2023-02-14T03:24:17.208Z,98664.94
2023-02-14T03:27:03.068Z,98658.78
2023-02-14T03:29:47.907Z,98667.25
2023-02-14T03:32:38.970Z,98667.38
2023-02-14T03:35:20.293Z,98653.31
2023-02-14T03:38:00.842Z,98660.22
2023-02-14T03:40:41.981Z,98645.06
2023-02-14T03:43:19.421Z,98645.81
2023-02-14T03:45:52.327Z,98643.44
2023-02-14T03:48:19.676Z,98648.88
2023-02-14T03:50:46.632Z,98657.00
2023-02-14T03:53:13.289Z,98651.19
2023-02-14T03:56:22.281Z,98646.16
2023-02-14T03:58:51.055Z,98642.75
2023-02-14T04:01:37.050Z,98641.91
2023-02-14T04:04:04.746Z,98646.84
2023-02-14T04:06:31.397Z,98654.84
2023-02-14T04:08:58.122Z,98657.59
2023-02-14T04:11:24.871Z,98662.00
2023-02-14T04:13:51.568Z,98659.03
2023-02-14T04:16:18.289Z,98650.16
2023-02-14T04:18:44.973Z,98659.13
2023-02-14T04:21:11.603Z,98652.81
2023-02-14T04:23:38.341Z,98659.97
2023-02-14T04:26:05.037Z,98663.69
2023-02-14T04:28:31.836Z,98667.38
2023-02-14T04:31:02.189Z,98661.31
2023-02-14T04:33:29.277Z,98664.81
2023-02-14T04:35:55.932Z,98667.72
2023-02-14T04:38:22.682Z,98667.63
2023-02-14T04:40:49.860Z,98658.13
2023-02-14T04:43:16.504Z,98656.44
2023-02-14T04:45:43.172Z,98651.25
2023-02-14T04:48:09.930Z,98648.38
2023-02-14T04:50:36.603Z,98640.44
2023-02-14T04:53:03.265Z,98646.50
2023-02-14T04:55:29.935Z,98652.94
2023-02-14T04:57:56.866Z,98643.00
2023-02-14T05:00:23.526Z,98652.50
2023-02-14T05:02:50.167Z,98647.47
2023-02-14T05:05:16.829Z,98650.53
2023-02-14T05:07:43.492Z,98647.19
2023-02-14T05:10:10.530Z,98638.25
2023-02-14T05:12:37.167Z,98657.09
2023-02-14T05:15:03.877Z,98657.09
2023-02-14T05:17:30.525Z,98654.50
2023-02-14T05:19:57.166Z,98644.19
2023-02-14T05:22:23.817Z,98644.03
2023-02-14T05:24:50.488Z,98650.69
2023-02-14T05:27:17.129Z,98653.69
2023-02-14T05:29:43.774Z,98650.13
2023-02-14T05:32:10.499Z,98657.50
2023-02-14T05:34:37.190Z,98661.09
2023-02-14T05:37:03.825Z,98660.78
2023-02-14T05:39:30.507Z,98662.97
2023-02-14T05:41:59.266Z,98664.50
2023-02-14T05:44:26.092Z,98668.06
2023-02-14T05:46:52.774Z,98669.72
2023-02-14T05:49:19.438Z,98668.34
2023-02-14T05:51:46.093Z,98661.00
2023-02-14T05:54:12.750Z,98667.66
2023-02-14T05:56:39.387Z,98661.72
2023-02-14T05:59:06.038Z,98662.66
2023-02-14T06:01:32.704Z,98660.66
2023-02-14T06:03:59.442Z,98663.91
2023-02-14T06:06:26.134Z,98663.72
2023-02-14T06:08:52.758Z,98663.41
2023-02-14T06:11:19.451Z,98662.31
2023-02-14T06:13:46.203Z,98655.75
2023-02-14T06:16:12.924Z,98656.88
2023-02-14T06:18:39.583Z,98653.38
2023-02-14T06:21:06.364Z,98655.22
2023-02-14T06:23:33.008Z,98653.78
2023-02-14T06:25:59.659Z,98653.78
2023-02-14T06:28:26.296Z,98661.78
2023-02-14T06:30:52.999Z,98658.44
2023-02-14T06:33:19.703Z,98652.47
2023-02-14T06:35:46.335Z,98657.84
2023-02-14T06:38:12.990Z,98662.66
2023-02-14T06:40:39.642Z,98660.81
2023-02-14T06:43:06.292Z,98654.66
2023-02-14T06:45:32.966Z,98662.50
2023-02-14T06:47:59.619Z,98658.03
2023-02-14T06:50:26.266Z,98663.53
2023-02-14T06:52:52.916Z,98655.16
2023-02-14T06:55:19.554Z,98648.78
2023-02-14T06:57:46.211Z,98658.56
2023-02-14T07:00:13.182Z,98659.56
2023-02-14T07:02:39.879Z,98654.91
2023-02-14T07:05:06.768Z,98655.38
2023-02-14T07:07:33.420Z,98657.09
2023-02-14T07:10:03.762Z,98653.34
2023-02-14T07:12:30.418Z,98660.84
2023-02-14T07:14:57.099Z,98651.06
2023-02-14T07:17:23.766Z,98647.22
2023-02-14T07:19:50.388Z,98647.06
2023-02-14T07:22:17.073Z,98642.72
2023-02-14T07:24:43.736Z,98651.34
2023-02-14T07:27:10.393Z,98654.66
2023-02-14T07:29:37.050Z,98657.78
2023-02-14T07:32:03.841Z,98654.47
2023-02-14T07:34:30.582Z,98660.50
2023-02-14T07:36:57.218Z,98657.88
2023-02-14T07:39:23.846Z,98658.22
2023-02-14T07:41:50.500Z,98656.13
2023-02-14T07:44:17.158Z,98652.91
2023-02-14T07:46:43.806Z,98659.13
2023-02-14T07:49:10.464Z,98660.94
2023-02-14T07:51:37.181Z,98652.88
2023-02-14T07:54:03.855Z,98664.41
2023-02-14T07:56:30.518Z,98653.97
2023-02-14T07:58:57.242Z,98658.53
2023-02-14T08:01:23.946Z,98658.22
2023-02-14T08:03:50.596Z,98654.41
2023-02-14T08:06:17.783Z,98652.53
2023-02-14T08:08:44.518Z,98649.25
2023-02-14T08:11:11.170Z,98654.44
2023-02-14T08:13:37.847Z,98655.97
2023-02-14T08:16:04.576Z,98656.81
2023-02-14T08:18:40.773Z,98646.03
2023-02-14T08:21:08.506Z,98645.25
2023-02-14T08:23:35.150Z,98649.78
2023-02-14T08:26:01.779Z,98653.34
2023-02-14T08:28:28.427Z,98654.34
2023-02-14T08:30:55.178Z,98654.00
2023-02-14T08:33:21.861Z,98651.22
2023-02-14T08:35:48.553Z,98657.88
2023-02-14T08:38:15.180Z,98648.00
2023-02-14T08:40:41.850Z,98637.84
2023-02-14T08:43:08.502Z,98637.19
2023-02-14T08:45:35.249Z,98625.84
2023-02-14T08:48:05.904Z,98633.59
2023-02-14T08:50:32.799Z,98627.47
2023-02-14T08:52:59.489Z,98637.03
2023-02-14T08:55:26.147Z,98633.09
2023-02-14T08:57:54.533Z,98630.06
2023-02-14T09:00:21.558Z,98636.34
2023-02-14T09:02:51.053Z,98623.63
2023-02-14T09:05:17.844Z,98624.94
2023-02-14T09:07:44.628Z,98627.25
2023-02-14T09:10:11.283Z,98619.66
2023-02-14T09:12:41.636Z,98620.06
2023-02-14T09:15:09.239Z,98618.41
2023-02-14T09:17:36.580Z,98622.22
2023-02-14T09:20:04.134Z,98615.72
2023-02-14T09:22:30.810Z,98610.41
2023-02-14T09:24:57.470Z,98606.47
2023-02-14T09:27:24.134Z,98605.19
2023-02-14T09:29:50.780Z,98610.47
2023-02-14T09:32:17.595Z,98599.97
2023-02-14T09:34:44.301Z,98598.50
2023-02-14T09:37:11.459Z,98605.84
2023-02-14T09:39:38.359Z,98606.25
2023-02-14T09:42:42.945Z,98610.66
2023-02-14T09:45:26.020Z,98612.81
2023-02-14T09:47:54.399Z,98616.31
2023-02-14T09:50:27.882Z,98624.78
2023-02-14T09:52:59.154Z,98630.94
2023-02-14T09:55:27.725Z,98631.09
2023-02-14T09:58:03.403Z,98630.63
2023-02-14T10:00:33.620Z,98624.19
2023-02-14T10:03:16.840Z,98631.91
2023-02-14T10:05:48.338Z,98640.44
2023-02-14T10:08:41.597Z,98635.81
2023-02-14T10:11:13.407Z,98639.75
2023-02-14T10:13:46.354Z,98632.00
2023-02-14T10:16:31.678Z,98627.88
2023-02-14T10:19:03.936Z,98625.31
2023-02-14T10:21:39.317Z,98621.09
2023-02-14T10:24:21.032Z,98617.25
2023-02-14T10:26:48.447Z,98614.38
2023-02-14T10:29:16.549Z,98614.19
2023-02-14T10:31:49.057Z,98608.59
2023-02-14T10:34:36.846Z,98602.84
2023-02-14T10:37:15.459Z,98595.47
2023-02-14T10:39:57.592Z,98598.63
2023-02-14T10:42:48.917Z,98585.19
2023-02-14T10:45:24.540Z,98587.78
2023-02-14T10:48:24.155Z,98581.56
2023-02-14T10:50:56.369Z,98570.53
2023-02-14T10:53:44.280Z,98576.59
2023-02-14T10:56:26.465Z,98578.31
2023-02-14T10:58:53.164Z,98571.41
2023-02-14T11:01:19.910Z,98570.00
2023-02-14T11:03:55.263Z,98573.38
2023-02-14T11:06:21.973Z,98566.19
2023-02-14T11:08:48.619Z,98571.84
2023-02-14T11:11:17.833Z,98567.88
2023-02-14T11:13:44.509Z,98561.69
2023-02-14T11:16:12.709Z,98553.06
2023-02-14T11:18:40.096Z,98554.06
2023-02-14T11:21:14.797Z,98544.91
2023-02-14T11:23:43.253Z,98540.09
2023-02-14T11:26:25.657Z,98541.50
2023-02-14T11:28:54.315Z,98530.34
2023-02-14T11:31:28.999Z,98533.31
2023-02-14T11:33:55.749Z,98526.00
2023-02-14T11:36:22.406Z,98528.41
2023-02-14T11:39:10.864Z,98525.00
2023-02-14T11:41:48.038Z,98521.03
2023-02-14T11:44:20.079Z,98524.13
2023-02-14T11:46:53.160Z,98515.22
2023-02-14T11:49:27.555Z,98524.00
2023-02-14T11:51:54.306Z,98517.16
2023-02-14T11:54:33.623Z,98516.16
2023-02-14T11:57:21.637Z,98512.44
2023-02-14T11:59:49.557Z,98504.75
2023-02-14T12:02:25.745Z,98503.03
2023-02-14T12:04:54.178Z,98500.56
2023-02-14T12:07:32.309Z,98501.00
2023-02-14T12:10:15.557Z,98495.25
2023-02-14T12:12:48.878Z,98498.25
2023-02-14T12:15:28.413Z,98489.84
2023-02-14T12:18:20.935Z,98485.06
2023-02-14T12:21:09.134Z,98484.97
2023-02-14T12:23:41.571Z,98481.44
2023-02-14T12:26:17.235Z,98480.88
2023-02-14T12:28:47.662Z,98473.94
2023-02-14T12:31:14.361Z,98469.44
2023-02-14T12:33:41.044Z,98468.75
2023-02-14T12:36:17.862Z,98463.25
2023-02-14T12:39:05.528Z,98468.44
2023-02-14T12:41:55.399Z,98457.56
2023-02-14T12:44:42.121Z,98462.22
2023-02-14T12:47:41.233Z,98445.97
2023-02-14T12:50:28.012Z,98444.88
2023-02-14T12:53:19.286Z,98432.22
2023-02-14T12:56:13.983Z,98433.59
2023-02-14T12:58:43.250Z,98420.53
2023-02-14T13:01:38.373Z,98414.25
2023-02-14T13:04:24.220Z,98402.84
2023-02-14T13:06:57.462Z,98394.75
2023-02-14T13:09:59.345Z,98406.69
2023-02-14T13:12:26.027Z,98398.69
2023-02-14T13:15:04.885Z,98395.16
2023-02-14T13:17:42.657Z,98388.00
2023-02-14T13:20:36.672Z,98392.81
2023-02-14T13:23:05.656Z,98382.81
2023-02-14T13:25:45.377Z,98381.75
2023-02-14T13:28:13.070Z,98364.84
2023-02-14T13:30:40.197Z,98367.38
2023-02-14T13:33:29.279Z,98366.88
2023-02-14T13:35:58.489Z,98363.75
2023-02-14T13:38:25.589Z,98359.97
2023-02-14T13:40:53.021Z,98357.88
2023-02-14T13:44:00.642Z,98359.72
2023-02-14T13:46:32.676Z,98351.09
2023-02-14T13:49:41.377Z,98348.88
2023-02-14T13:52:09.389Z,98350.72
2023-02-14T13:54:45.965Z,98351.81
2023-02-14T13:57:34.297Z,98361.53
2023-02-14T14:00:16.330Z,98350.56
2023-02-14T14:03:15.893Z,98351.09
2023-02-14T14:05:42.426Z,98349.56
2023-02-14T14:08:20.975Z,98356.06
2023-02-14T14:10:52.064Z,98353.53
2023-02-14T14:13:40.627Z,98349.03
2023-02-14T14:16:25.416Z,98348.88
2023-02-14T14:19:21.159Z,98345.78
2023-02-14T14:22:10.556Z,98348.06
2023-02-14T14:24:40.978Z,98339.75
2023-02-14T14:27:30.614Z,98333.28
2023-02-14T14:29:58.537Z,98331.31
2023-02-14T14:32:27.664Z,98328.38
2023-02-14T14:34:56.397Z,98330.34
2023-02-14T14:37:35.676Z,98332.47
2023-02-14T14:40:04.913Z,98325.97
2023-02-14T14:42:39.234Z,98315.81
2023-02-14T14:45:24.291Z,98314.88
2023-02-14T14:47:54.081Z,98315.13
2023-02-14T14:50:28.546Z,98317.53
2023-02-14T14:53:18.644Z,98317.09
2023-02-14T14:55:45.912Z,98309.06
2023-02-14T14:58:36.882Z,98306.84
2023-02-14T15:01:04.287Z,98306.94
2023-02-14T15:03:30.987Z,98306.41
2023-02-14T15:06:08.736Z,98316.81
2023-02-14T15:08:35.562Z,98315.00
2023-02-14T15:11:13.279Z,98311.16
2023-02-14T15:13:45.743Z,98303.59
2023-02-14T15:16:54.179Z,98299.50
2023-02-14T15:19:28.748Z,98300.47
2023-02-14T15:21:55.421Z,98304.13
2023-02-14T15:24:22.096Z,98300.19
2023-02-14T15:26:48.758Z,98291.28
2023-02-14T15:29:21.389Z,98298.47
2023-02-14T15:31:48.173Z,98301.13
2023-02-14T15:34:14.861Z,98290.44
2023-02-14T15:36:41.510Z,98291.06
2023-02-14T15:39:08.310Z,98295.97
2023-02-14T15:41:35.283Z,98289.34
2023-02-14T15:44:01.964Z,98287.66
2023-02-14T15:46:35.786Z,98280.59
2023-02-14T15:49:08.056Z,98280.19
2023-02-14T15:51:34.715Z,98277.34
2023-02-14T15:54:06.180Z,98273.97
2023-02-14T15:56:45.475Z,98272.97
2023-02-14T15:59:16.490Z,98278.75
2023-02-14T16:01:53.929Z,98278.28
2023-02-14T16:04:28.564Z,98276.44
2023-02-14T16:07:21.889Z,98273.66
2023-02-14T16:09:49.042Z,98284.19
2023-02-14T16:12:32.240Z,98280.38
2023-02-14T16:15:18.589Z,98276.53
2023-02-14T16:17:45.259Z,98282.41
2023-02-14T16:20:36.046Z,98274.94
2023-02-14T16:23:17.851Z,98274.94
2023-02-14T16:25:44.864Z,98275.63
2023-02-14T16:28:11.517Z,98278.25
2023-02-14T16:30:38.513Z,98279.50
2023-02-14T16:33:06.725Z,98280.63
2023-02-14T16:35:33.387Z,98278.59
2023-02-14T16:38:00.048Z,98277.66
2023-02-14T16:40:26.855Z,98272.28
2023-02-14T16:42:53.508Z,98277.53
2023-02-14T16:45:20.181Z,98283.53
2023-02-14T16:47:47.105Z,98273.66
2023-02-14T16:50:13.746Z,98280.47
2023-02-14T16:52:40.411Z,98282.59
2023-02-14T16:55:10.776Z,98285.25
2023-02-14T16:57:39.793Z,98286.50
2023-02-14T17:00:06.961Z,98278.63
2023-02-14T17:02:34.303Z,98287.41
2023-02-14T17:05:00.970Z,98284.66
2023-02-14T17:07:28.740Z,98281.13
2023-02-14T17:09:57.901Z,98281.41
2023-02-14T17:12:27.184Z,98277.66
2023-02-14T17:14:54.374Z,98274.50
2023-02-14T17:17:21.037Z,98270.81
2023-02-14T17:19:47.699Z,98265.72
2023-02-14T17:22:14.352Z,98269.72
2023-02-14T17:24:44.937Z,98262.94
2023-02-14T17:27:11.590Z,98269.25
2023-02-14T17:29:38.259Z,98266.38
2023-02-14T17:32:05.141Z,98260.09
2023-02-14T17:34:32.691Z,98261.06
2023-02-14T17:36:59.447Z,98258.41
2023-02-14T17:39:26.120Z,98264.06
2023-02-14T17:41:52.770Z,98268.09
2023-02-14T17:44:19.420Z,98265.53
2023-02-14T17:46:46.126Z,98265.06
2023-02-14T17:49:12.831Z,98268.34
2023-02-14T17:51:39.487Z,98267.97
2023-02-14T17:54:06.150Z,98266.28
2023-02-14T17:56:32.827Z,98260.97
2023-02-14T17:58:59.899Z,98260.59
2023-02-14T18:01:28.063Z,98260.00
2023-02-14T18:03:54.769Z,98263.72
2023-02-14T18:06:21.995Z,98265.81
2023-02-14T18:08:49.431Z,98268.72
2023-02-14T18:11:16.596Z,98273.53
2023-02-14T18:13:43.320Z,98274.88
2023-02-14T18:16:11.381Z,98268.34
2023-02-14T18:18:38.194Z,98267.63
2023-02-14T18:21:06.267Z,98268.31
2023-02-14T18:23:33.107Z,98261.06
2023-02-14T18:26:01.286Z,98264.94
2023-02-14T18:28:27.939Z,98263.69
2023-02-14T18:30:54.620Z,98262.13
2023-02-14T18:33:21.433Z,98265.84
2023-02-14T18:35:48.080Z,98261.47
2023-02-14T18:38:15.168Z,98261.56
2023-02-14T18:40:41.837Z,98261.28
2023-02-14T18:43:08.517Z,98268.66
2023-02-14T18:45:36.228Z,98255.81
2023-02-14T18:48:03.007Z,98273.09
2023-02-14T18:50:29.663Z,98266.81
2023-02-14T18:52:56.305Z,98264.75
2023-02-14T18:55:22.940Z,98260.28
2023-02-14T18:57:49.624Z,98261.03
2023-02-14T19:00:16.327Z,98255.50
2023-02-14T19:02:42.961Z,98255.25
2023-02-14T19:05:09.689Z,98242.69
2023-02-14T19:07:36.323Z,98241.50
2023-02-14T19:10:04.930Z,98252.63
2023-02-14T19:12:32.298Z,98253.97
2023-02-14T19:14:59.398Z,98250.94
2023-02-14T19:17:26.058Z,98252.88
2023-02-14T19:19:53.138Z,98249.38
2023-02-14T19:22:19.986Z,98249.56
2023-02-14T19:24:46.639Z,98236.66
2023-02-14T19:27:13.298Z,98239.31
2023-02-14T19:29:39.935Z,98247.84
2023-02-14T19:32:06.587Z,98241.69
2023-02-14T19:34:33.266Z,98241.94
2023-02-14T19:37:00.438Z,98246.28
2023-02-14T19:39:28.361Z,98245.16
2023-02-14T19:41:55.097Z,98248.28
2023-02-14T19:44:23.143Z,98244.16
2023-02-14T19:46:51.838Z,98247.66
2023-02-14T19:49:19.428Z,98247.09
2023-02-14T19:51:47.019Z,98242.00
2023-02-14T19:54:13.753Z,98243.84
2023-02-14T19:56:42.065Z,98247.53
2023-02-14T19:59:08.762Z,98245.25
2023-02-14T20:01:42.029Z,98245.53
2023-02-14T20:04:10.001Z,98244.03
2023-02-14T20:06:37.162Z,98250.94
2023-02-14T20:09:04.629Z,98255.19
2023-02-14T20:11:47.135Z,98251.84
2023-02-14T20:14:13.805Z,98259.94
2023-02-14T20:16:40.509Z,98255.59
2023-02-14T20:19:08.652Z,98255.22
2023-02-14T20:21:35.287Z,98245.63
2023-02-14T20:24:02.218Z,98245.63
2023-02-14T20:26:32.924Z,98251.41
2023-02-14T20:29:00.372Z,98248.19
2023-02-14T20:31:27.061Z,98253.66
2023-02-14T20:33:53.745Z,98256.94
2023-02-14T20:36:20.390Z,98251.97
2023-02-14T20:38:47.077Z,98250.78
2023-02-14T20:41:14.174Z,98249.91
2023-02-14T20:43:40.829Z,98250.56
2023-02-14T20:46:07.528Z,98247.63
2023-02-14T20:48:34.333Z,98250.00
2023-02-14T20:51:18.150Z,98248.28
2023-02-14T20:53:44.917Z,98253.19
2023-02-14T20:56:11.608Z,98254.28
2023-02-14T20:58:38.303Z,98254.38
2023-02-14T21:01:09.062Z,98253.97
2023-02-14T21:03:35.970Z,98251.88
2023-02-14T21:06:06.447Z,98249.03
2023-02-14T21:08:33.172Z,98245.44
2023-02-14T21:11:00.241Z,98248.94
2023-02-14T21:13:27.152Z,98239.41
2023-02-14T21:15:53.883Z,98247.97
2023-02-14T21:18:20.609Z,98250.84
2023-02-14T21:20:47.276Z,98249.69
2023-02-14T21:23:13.929Z,98244.09
2023-02-14T21:25:40.585Z,98245.03
2023-02-14T21:28:07.210Z,98239.84
2023-02-14T21:30:33.954Z,98237.69
2023-02-14T21:33:00.604Z,98249.81
2023-02-14T21:35:27.241Z,98248.13
2023-02-14T21:37:53.888Z,98250.97
2023-02-14T21:40:20.514Z,98242.91
2023-02-14T21:42:47.164Z,98239.13
2023-02-14T21:45:13.838Z,98240.69
2023-02-14T21:47:40.472Z,98237.81
2023-02-14T21:50:07.419Z,98242.81
2023-02-14T21:52:34.037Z,98244.63
2023-02-14T21:55:00.718Z,98240.78
2023-02-14T21:57:27.410Z,98235.91
2023-02-14T21:59:54.035Z,98235.38
2023-02-14T22:02:20.733Z,98240.59
2023-02-14T22:04:47.582Z,98238.81
2023-02-14T22:07:14.247Z,98240.81
2023-02-14T22:09:40.885Z,98236.38
2023-02-14T22:12:07.556Z,98234.06
2023-02-14T22:14:34.208Z,98236.16
2023-02-14T22:17:00.862Z,98236.25
2023-02-14T22:19:27.538Z,98235.59
2023-02-14T22:21:54.173Z,98238.59
2023-02-14T22:24:20.822Z,98238.59
2023-02-14T22:26:47.481Z,98239.22
2023-02-14T22:29:14.105Z,98248.97
2023-02-14T22:31:42.362Z,98233.91
2023-02-14T22:34:10.331Z,98238.16
2023-02-14T22:36:36.963Z,98236.47
2023-02-14T22:39:04.106Z,98234.56
2023-02-14T22:41:30.757Z,98227.16
2023-02-14T22:43:57.403Z,98222.59
2023-02-14T22:46:25.676Z,98217.41
2023-02-14T22:48:52.466Z,98215.78
2023-02-14T22:51:22.682Z,98219.50
2023-02-14T22:53:50.107Z,98219.72
2023-02-14T22:56:18.651Z,98212.16
2023-02-14T22:58:45.358Z,98213.34
2023-02-14T23:01:15.704Z,98214.94
2023-02-14T23:03:42.745Z,98203.16
2023-02-14T23:06:09.826Z,98200.09
2023-02-14T23:08:43.171Z,98204.97
2023-02-14T23:11:11.294Z,98212.81
2023-02-14T23:13:37.935Z,98209.09
2023-02-14T23:16:04.593Z,98214.41
2023-02-14T23:18:31.257Z,98215.38
2023-02-14T23:20:57.912Z,98210.59
2023-02-14T23:23:24.557Z,98213.97
2023-02-14T23:25:51.174Z,98216.09
2023-02-14T23:28:17.981Z,98218.66
2023-02-14T23:30:44.624Z,98222.66
2023-02-14T23:33:11.266Z,98229.44
2023-02-14T23:35:37.912Z,98219.16
2023-02-14T23:38:04.560Z,98223.41
2023-02-14T23:40:31.215Z,98223.28
2023-02-14T23:42:57.857Z,98226.78
2023-02-14T23:45:24.639Z,98216.13
2023-02-14T23:47:51.310Z,98225.03
2023-02-14T23:50:18.042Z,98220.00
2023-02-14T23:52:44.842Z,98222.03
2023-02-14T23:55:11.772Z,98223.72
2023-02-14T23:57:38.386Z,98220.97
